Time;durP1;ratioP1;P1;durP2;ratioP2;P2;SDS_P1;SDS_P2;PMS_P1;PMS_P2;Temp;Humidity;BMP_temperature;BMP_pressure;BME280_temperature;BME280_humidity;BME280_pressure;Samples;Min_cycle;Max_cycle;Signal;HPM_P1;HPM_P2
2023/02/20 00:00:07;;;;;;;4.33;3.83;;;8.80;99.90;;;;;;5050041;28;20505;-87
2023/02/20 00:02:33;;;;;;;4.60;3.90;;;8.70;99.90;;;;;;5044944;28;20190;-88
2023/02/20 00:04:58;;;;;;;6.87;4.37;;;8.80;99.90;;;;;;5044239;28;20847;-85
2023/02/20 00:07:24;;;;;;;4.30;3.50;;;8.80;99.90;;;;;;5047072;28;20625;-89
2023/02/20 00:09:50;;;;;;;3.70;3.10;;;8.70;99.90;;;;;;5044405;28;20538;-90
2023/02/20 00:12:16;;;;;;;4.83;4.23;;;8.70;99.90;;;;;;5046081;28;20175;-91
2023/02/20 00:14:41;;;;;;;5.77;3.70;;;8.60;99.90;;;;;;5054441;28;20635;-89
2023/02/20 00:17:07;;;;;;;6.60;3.70;;;8.60;99.90;;;;;;5051543;28;20593;-79
2023/02/20 00:19:32;;;;;;;4.40;3.60;;;8.60;99.90;;;;;;5054421;28;20591;-83
2023/02/20 00:21:58;;;;;;;5.43;4.03;;;8.60;99.90;;;;;;5046906;28;20187;-82
2023/02/20 00:24:23;;;;;;;5.20;3.60;;;8.60;99.90;;;;;;5047999;28;20723;-81
2023/02/20 00:26:51;;;;;;;3.90;3.50;;;8.60;99.90;;;;;;5040999;28;20215;-82
2023/02/20 00:29:22;;;;;;;8.13;4.80;;;8.50;99.90;;;;;;5041933;28;20191;-82
2023/02/20 00:31:50;;;;;;;5.87;3.77;;;8.50;99.90;;;;;;5042829;28;20484;-77
2023/02/20 00:34:16;;;;;;;9.03;4.70;;;8.60;99.90;;;;;;5043726;28;20458;-81
2023/02/20 00:36:41;;;;;;;6.57;4.83;;;8.60;99.90;;;;;;5042850;28;20435;-80
2023/02/20 00:39:07;;;;;;;7.53;5.00;;;8.50;99.90;;;;;;5041881;28;20180;-82
2023/02/20 00:41:32;;;;;;;6.70;4.70;;;8.50;99.90;;;;;;5044567;28;20538;-81
2023/02/20 00:43:58;;;;;;;6.77;4.83;;;8.50;99.90;;;;;;5045121;28;20539;-81
2023/02/20 00:46:23;;;;;;;6.80;5.80;;;8.50;99.90;;;;;;5036652;28;20595;-80
2023/02/20 00:48:49;;;;;;;9.20;6.27;;;8.50;99.90;;;;;;5054490;28;20669;-78
2023/02/20 00:51:15;;;;;;;8.20;5.63;;;8.50;99.90;;;;;;5051623;28;20219;-77
2023/02/20 00:53:41;;;;;;;9.90;6.57;;;8.40;99.90;;;;;;5049854;28;20429;-82
2023/02/20 00:56:06;;;;;;;12.97;7.30;;;8.50;99.90;;;;;;5048690;28;20434;-82
2023/02/20 00:58:32;;;;;;;12.70;7.83;;;8.50;99.90;;;;;;5042191;28;20183;-82
2023/02/20 01:00:58;;;;;;;12.87;7.43;;;8.60;99.90;;;;;;5042978;28;20241;-82
2023/02/20 01:03:23;;;;;;;11.33;8.20;;;8.60;99.90;;;;;;5042910;28;20206;-82
2023/02/20 01:05:49;;;;;;;18.73;9.40;;;8.60;99.90;;;;;;5041387;28;20210;-82
2023/02/20 01:08:14;;;;;;;14.83;9.07;;;8.70;99.90;;;;;;5038652;28;20293;-77
2023/02/20 01:10:40;;;;;;;12.50;8.00;;;8.70;99.90;;;;;;5036435;28;20183;-77
2023/02/20 01:13:05;;;;;;;15.23;9.00;;;8.70;99.90;;;;;;5035089;28;20654;-77
2023/02/20 01:15:31;;;;;;;15.80;8.87;;;8.70;99.90;;;;;;5044848;28;20163;-78
2023/02/20 01:17:56;;;;;;;13.20;8.67;;;8.60;99.90;;;;;;5045188;28;20166;-77
2023/02/20 01:20:22;;;;;;;16.27;8.93;;;8.50;99.90;;;;;;5049258;28;20183;-77
2023/02/20 01:22:47;;;;;;;15.50;10.67;;;8.60;99.90;;;;;;5049529;28;20178;-76
2023/02/20 01:25:13;;;;;;;17.37;10.47;;;8.50;99.90;;;;;;5049835;28;20193;-77
2023/02/20 01:27:38;;;;;;;21.63;11.83;;;8.60;99.90;;;;;;5032628;28;20211;-77
2023/02/20 01:30:05;;;;;;;20.83;10.93;;;8.60;99.90;;;;;;5049806;28;20221;-74
2023/02/20 01:32:30;;;;;;;20.37;11.23;;;8.70;99.90;;;;;;5039904;28;20270;-75
2023/02/20 01:34:56;;;;;;;16.37;10.67;;;8.60;99.90;;;;;;5038482;28;20933;-76
2023/02/20 01:37:21;;;;;;;17.67;11.50;;;8.60;99.90;;;;;;5037291;28;20183;-75
2023/02/20 01:39:47;;;;;;;21.87;10.90;;;8.60;99.90;;;;;;5047987;28;20171;-77
2023/02/20 01:42:17;;;;;;;21.67;11.97;;;8.60;99.90;;;;;;5045931;28;20179;-76
2023/02/20 01:44:43;;;;;;;21.80;10.80;;;8.60;99.90;;;;;;5050656;28;20200;-76
2023/02/20 01:47:14;;;;;;;18.53;11.57;;;8.60;99.90;;;;;;5047557;28;20885;-76
2023/02/20 01:49:47;;;;;;;14.90;9.40;;;8.60;99.90;;;;;;5046825;28;20551;-78
2023/02/20 01:52:20;;;;;;;15.00;10.80;;;8.70;99.90;;;;;;5038834;28;20561;-83
2023/02/20 01:54:54;;;;;;;22.03;11.07;;;8.70;99.90;;;;;;5040323;28;20440;-84
2023/02/20 01:57:23;;;;;;;17.03;11.47;;;8.60;99.90;;;;;;5043225;28;20850;-83
2023/02/20 01:59:53;;;;;;;19.20;11.87;;;8.60;99.90;;;;;;5041810;28;20452;-84
2023/02/20 02:02:20;;;;;;;17.03;9.37;;;8.70;99.90;;;;;;5038670;28;20525;-79
2023/02/20 02:04:46;;;;;;;17.17;11.00;;;8.80;99.90;;;;;;5047046;28;20438;-79
2023/02/20 02:07:12;;;;;;;17.77;9.40;;;8.80;99.90;;;;;;5049158;28;20820;-79
2023/02/20 02:09:47;;;;;;;18.00;9.93;;;8.80;99.90;;;;;;5031765;28;20430;-79
2023/02/20 02:12:12;;;;;;;14.67;9.87;;;8.80;99.90;;;;;;5033261;28;20263;-78
2023/02/20 02:14:38;;;;;;;14.13;8.70;;;8.80;99.90;;;;;;5035661;28;20504;-79
2023/02/20 02:17:49;;;;;;;15.80;9.77;;;8.80;99.90;;;;;;5019084;28;20201;-80
2023/02/20 02:20:29;;;;;;;15.30;9.83;;;8.90;99.90;;;;;;5045750;28;20430;-79
2023/02/20 02:23:26;;;;;;;12.80;9.17;;;8.90;99.90;;;;;;5042274;28;20500;-78
2023/02/20 02:26:30;;;;;;;18.07;10.73;;;8.90;99.90;;;;;;5041212;28;20454;-75
2023/02/20 02:29:24;;;;;;;14.20;9.23;;;8.80;99.90;;;;;;5039360;28;20421;-75
2023/02/20 02:32:15;;;;;;;13.77;8.70;;;8.70;99.90;;;;;;5036752;28;20474;-75
2023/02/20 02:35:21;;;;;;;13.50;8.90;;;8.70;99.90;;;;;;5035005;28;20493;-75
2023/02/20 02:37:53;;;;;;;17.20;9.17;;;8.70;99.90;;;;;;4952161;28;20446;-75
2023/02/20 02:40:29;;;;;;;14.70;9.43;;;8.80;99.90;;;;;;4954250;28;20863;-75
2023/02/20 02:43:22;;;;;;;15.10;9.27;;;8.80;99.90;;;;;;5003997;28;20509;-75
2023/02/20 02:45:54;;;;;;;17.53;8.67;;;8.90;99.90;;;;;;5028819;28;20803;-75
2023/02/20 02:48:51;;;;;;;15.77;9.03;;;8.90;99.90;;;;;;5049349;28;20533;-75
2023/02/20 02:51:22;;;;;;;18.03;11.60;;;8.90;99.90;;;;;;5043512;28;20502;-74
2023/02/20 02:54:06;;;;;;;16.47;9.73;;;8.90;99.90;;;;;;5044326;28;20524;-75
2023/02/20 02:56:38;;;;;;;17.13;9.83;;;8.80;99.90;;;;;;5038727;28;20456;-75
2023/02/20 02:59:05;;;;;;;13.80;9.33;;;8.80;99.90;;;;;;5048494;28;20433;-75
2023/02/20 03:01:35;;;;;;;17.67;11.43;;;8.70;99.90;;;;;;5034977;28;20426;-75
2023/02/20 03:04:05;;;;;;;17.27;9.67;;;8.80;99.90;;;;;;5033527;28;20426;-75
2023/02/20 03:06:35;;;;;;;15.70;9.03;;;8.90;99.90;;;;;;5033713;28;20563;-83
2023/02/20 03:09:19;;;;;;;15.50;9.83;;;8.90;99.90;;;;;;5050373;28;20974;-82
2023/02/20 03:11:47;;;;;;;21.27;8.37;;;8.80;99.90;;;;;;5037498;28;20418;-78
2023/02/20 03:17:36;;;;;;;18.20;8.63;;;8.90;99.90;;;;;;5041450;28;20436;-78
2023/02/20 03:20:06;;;;;;;15.37;9.73;;;8.90;99.90;;;;;;5043381;28;20437;-77
2023/02/20 03:22:46;;;;;;;15.43;8.73;;;8.90;99.90;;;;;;5045336;28;20436;-79
2023/02/20 03:25:21;;;;;;;15.23;9.93;;;8.80;99.90;;;;;;5026393;28;20957;-80
2023/02/20 03:28:17;;;;;;;14.40;9.03;;;8.80;99.90;;;;;;5035216;28;20433;-81
2023/02/20 03:30:53;;;;;;;14.40;8.67;;;8.80;99.90;;;;;;5032802;28;20441;-82
2023/02/20 05:32:40;;;;;;;10.43;6.57;;;8.70;99.90;;;;;;5031514;28;20521;-79
2023/02/20 05:35:06;;;;;;;15.10;7.17;;;8.60;99.90;;;;;;5033573;28;20438;-80
2023/02/20 05:37:33;;;;;;;13.60;6.40;;;8.80;99.90;;;;;;5033633;28;20636;-80
2023/02/20 05:39:58;;;;;;;13.87;6.00;;;8.80;99.90;;;;;;5033503;28;20521;-79
2023/02/20 05:42:24;;;;;;;10.00;5.03;;;8.70;99.90;;;;;;5033600;28;20186;-80
2023/02/20 05:44:49;;;;;;;13.23;6.20;;;8.80;99.90;;;;;;5033499;28;20634;-79
2023/02/20 05:47:16;;;;;;;12.20;7.33;;;8.70;99.90;;;;;;5033531;28;20250;-79
2023/02/20 05:49:41;;;;;;;10.40;6.13;;;8.80;99.90;;;;;;5033451;28;20562;-76
2023/02/20 05:52:10;;;;;;;13.07;7.40;;;8.80;99.90;;;;;;5033652;28;20452;-81
2023/02/20 05:54:37;;;;;;;9.40;6.07;;;8.80;99.90;;;;;;5033392;28;20559;-81
2023/02/20 05:57:03;;;;;;;15.73;6.70;;;8.70;99.90;;;;;;5033293;28;20434;-79
2023/02/20 05:59:28;;;;;;;15.20;6.93;;;8.70;99.90;;;;;;5031944;28;20523;-79
2023/02/20 06:01:58;;;;;;;12.03;6.17;;;8.70;99.90;;;;;;5033277;28;20517;-76
2023/02/20 06:04:23;;;;;;;11.00;6.47;;;8.80;99.90;;;;;;5033105;28;20244;-75
2023/02/20 06:06:49;;;;;;;14.47;6.23;;;8.80;99.90;;;;;;5033225;28;20576;-75
2023/02/20 06:09:15;;;;;;;10.40;6.60;;;8.80;99.90;;;;;;5032924;28;20543;-76
2023/02/20 06:11:46;;;;;;;8.07;6.40;;;8.60;99.90;;;;;;5033275;28;20188;-76
2023/02/20 06:14:12;;;;;;;11.20;6.23;;;8.60;99.90;;;;;;5032961;28;20435;-76
2023/02/20 06:16:37;;;;;;;12.57;5.70;;;8.70;99.90;;;;;;5033263;28;20449;-77
2023/02/20 06:19:04;;;;;;;10.27;5.20;;;8.70;99.90;;;;;;5033135;28;20180;-77
2023/02/20 06:21:30;;;;;;;11.23;6.77;;;8.70;99.90;;;;;;5032844;28;20214;-77
2023/02/20 06:23:55;;;;;;;22.20;7.03;;;8.60;99.90;;;;;;5032972;28;20446;-77
2023/02/20 06:26:22;;;;;;;6.10;5.30;;;8.80;99.90;;;;;;5032946;28;20199;-77
2023/02/20 06:28:49;;;;;;;14.90;6.07;;;8.70;99.90;;;;;;5032879;28;20599;-77
2023/02/20 06:31:24;;;;;;;16.27;5.77;;;8.70;99.90;;;;;;5032440;28;20490;-75
2023/02/20 06:33:49;;;;;;;8.93;6.50;;;8.70;99.90;;;;;;5031459;28;20941;-75
2023/02/20 06:36:21;;;;;;;14.37;7.37;;;8.70;99.90;;;;;;5032547;28;20462;-75
2023/02/20 06:38:47;;;;;;;9.70;5.53;;;8.70;99.90;;;;;;5032653;28;20176;-77
2023/02/20 06:41:12;;;;;;;9.77;6.80;;;8.70;99.90;;;;;;5032636;28;20432;-77
2023/02/20 06:43:38;;;;;;;13.10;7.40;;;8.70;99.90;;;;;;5032463;28;20572;-77
2023/02/20 06:46:03;;;;;;;12.63;7.40;;;8.60;99.90;;;;;;5032546;28;20215;-77
2023/02/20 06:48:29;;;;;;;14.87;7.40;;;8.60;99.90;;;;;;5031959;28;20206;-77
2023/02/20 06:50:56;;;;;;;14.30;7.90;;;8.60;99.90;;;;;;5032445;28;20227;-77
2023/02/20 06:53:21;;;;;;;11.23;7.67;;;8.60;99.90;;;;;;5032510;28;20195;-77
2023/02/20 06:55:47;;;;;;;13.80;9.37;;;8.60;99.90;;;;;;5034094;28;20422;-77
2023/02/20 06:58:12;;;;;;;16.20;9.30;;;8.40;99.90;;;;;;5034839;28;20241;-77
2023/02/20 07:00:38;;;;;;;14.97;9.33;;;8.40;99.90;;;;;;5032680;28;20549;-79
2023/02/20 07:03:03;;;;;;;14.67;10.90;;;8.40;99.90;;;;;;5014172;28;20195;-78
2023/02/20 07:05:29;;;;;;;19.87;10.00;;;8.40;99.90;;;;;;5022901;28;20867;-76
2023/02/20 07:07:54;;;;;;;20.10;10.10;;;8.40;99.90;;;;;;5013413;28;20218;-76
2023/02/20 07:10:20;;;;;;;14.60;9.73;;;8.30;99.90;;;;;;5023933;28;20640;-74
2023/02/20 07:12:46;;;;;;;17.53;12.77;;;8.30;99.90;;;;;;5028606;28;20229;-74
2023/02/20 07:15:11;;;;;;;16.53;11.50;;;8.30;99.90;;;;;;5028463;28;20215;-77
2023/02/20 07:17:37;;;;;;;21.60;14.10;;;8.40;99.90;;;;;;5035150;28;20176;-76
2023/02/20 07:20:04;;;;;;;18.67;15.47;;;8.30;99.90;;;;;;5035066;28;20184;-75
2023/02/20 07:22:29;;;;;;;30.67;15.33;;;8.40;99.90;;;;;;5035440;28;20180;-74
2023/02/20 07:24:55;;;;;;;23.53;16.83;;;8.20;99.90;;;;;;5034323;28;20856;-77
2023/02/20 07:27:21;;;;;;;23.50;16.80;;;8.20;99.90;;;;;;5034833;28;20200;-78
2023/02/20 07:29:48;;;;;;;20.30;13.73;;;8.20;99.90;;;;;;5035224;28;20271;-83
2023/02/20 07:32:19;;;;;;;26.23;15.57;;;8.10;99.90;;;;;;5034087;28;20812;-82
2023/02/20 07:34:45;;;;;;;19.90;15.17;;;8.10;99.90;;;;;;5035438;28;20505;-89
2023/02/20 07:37:10;;;;;;;28.07;17.23;;;8.10;99.90;;;;;;5035430;28;20422;-84
2023/02/20 07:39:36;;;;;;;27.00;16.90;;;8.10;99.90;;;;;;5035353;28;20463;-83
2023/02/20 07:42:01;;;;;;;26.40;15.67;;;8.00;99.90;;;;;;5034812;28;20583;-82
2023/02/20 07:44:27;;;;;;;27.90;14.43;;;8.10;99.90;;;;;;5034909;28;20242;-82
2023/02/20 07:46:52;;;;;;;27.50;15.83;;;8.10;99.90;;;;;;5035524;28;20302;-81
2023/02/20 07:49:18;;;;;;;23.17;14.07;;;8.10;99.90;;;;;;5034507;28;20266;-81
2023/02/20 07:51:43;;;;;;;29.40;18.20;;;8.10;99.90;;;;;;5034570;28;20500;-73
2023/02/20 07:54:09;;;;;;;25.33;18.27;;;8.20;99.90;;;;;;5032999;28;20196;-78
2023/02/20 07:56:34;;;;;;;21.33;14.60;;;8.20;99.90;;;;;;5034860;28;20264;-80
2023/02/20 07:59:00;;;;;;;20.70;13.70;;;8.30;99.90;;;;;;5034669;28;20179;-78
2023/02/20 08:01:25;;;;;;;17.50;13.40;;;8.20;99.90;;;;;;5034111;28;20188;-76
2023/02/20 08:03:51;;;;;;;26.37;13.73;;;8.20;99.90;;;;;;5033805;28;20251;-74
2023/02/20 08:06:18;;;;;;;22.73;15.30;;;8.30;99.90;;;;;;5033346;28;20257;-74
2023/02/20 08:08:49;;;;;;;23.30;13.30;;;8.30;99.90;;;;;;5033697;28;20178;-74
2023/02/20 08:11:21;;;;;;;23.73;12.77;;;8.30;99.90;;;;;;5033863;28;20435;-76
2023/02/20 08:13:47;;;;;;;18.97;12.70;;;8.30;99.90;;;;;;5034612;28;20512;-77
2023/02/20 08:16:13;;;;;;;19.40;13.20;;;8.30;99.90;;;;;;5031967;28;20434;-76
2023/02/20 08:18:38;;;;;;;19.53;12.77;;;8.20;99.90;;;;;;5034717;28;20786;-78
2023/02/20 08:21:04;;;;;;;16.77;12.20;;;8.30;99.90;;;;;;5034562;28;20209;-80
2023/02/20 08:23:29;;;;;;;21.27;12.53;;;8.30;99.90;;;;;;5034383;28;20191;-80
2023/02/20 08:25:55;;;;;;;25.60;13.07;;;8.40;99.90;;;;;;5034373;28;20294;-85
2023/02/20 08:28:24;;;;;;;18.70;12.73;;;8.50;99.90;;;;;;5034234;28;20192;-71
2023/02/20 08:30:49;;;;;;;21.13;12.00;;;8.40;99.90;;;;;;5030966;28;20219;-71
2023/02/20 08:33:15;;;;;;;20.23;12.17;;;8.40;99.90;;;;;;5033943;28;20438;-73
2023/02/20 08:35:41;;;;;;;22.10;12.83;;;8.40;99.90;;;;;;5034009;28;20576;-69
2023/02/20 08:38:33;;;;;;;16.80;10.37;;;8.50;99.90;;;;;;5033774;28;20184;-71
2023/02/20 08:41:02;;;;;;;18.17;11.87;;;8.40;99.90;;;;;;5031958;28;20549;-72
2023/02/20 08:43:28;;;;;;;24.07;11.60;;;8.40;99.90;;;;;;5033842;28;21027;-71
2023/02/20 08:45:54;;;;;;;21.07;12.10;;;8.40;99.90;;;;;;5034058;28;20482;-71
2023/02/20 08:48:19;;;;;;;24.20;12.97;;;8.30;99.90;;;;;;5033440;28;20270;-70
2023/02/20 08:50:46;;;;;;;22.03;12.80;;;8.30;99.90;;;;;;5034177;28;20529;-70
2023/02/20 08:53:12;;;;;;;19.60;13.53;;;8.40;99.90;;;;;;5034106;28;20207;-70
2023/02/20 08:55:38;;;;;;;20.73;12.00;;;8.40;99.90;;;;;;5031874;28;20500;-70
2023/02/20 08:58:04;;;;;;;29.00;12.47;;;8.30;99.90;;;;;;5033646;28;20517;-70
2023/02/20 09:00:29;;;;;;;21.60;12.60;;;8.30;99.90;;;;;;5033902;28;20198;-71
2023/02/20 09:02:55;;;;;;;22.17;12.40;;;8.30;99.90;;;;;;5033626;28;20234;-70
2023/02/20 09:05:20;;;;;;;25.53;13.70;;;8.30;99.90;;;;;;5033632;28;20317;-70
2023/02/20 09:07:46;;;;;;;20.60;13.30;;;8.40;99.90;;;;;;5033723;28;20671;-70
2023/02/20 09:10:12;;;;;;;20.47;12.53;;;8.40;99.90;;;;;;5034022;28;20183;-75
2023/02/20 09:12:40;;;;;;;18.00;11.73;;;8.40;99.90;;;;;;5033324;28;20183;-71
2023/02/20 09:15:09;;;;;;;22.90;11.80;;;8.40;99.90;;;;;;5032904;28;20509;-72
2023/02/20 09:17:35;;;;;;;17.97;11.60;;;8.40;99.90;;;;;;5033597;28;20435;-71
2023/02/20 09:20:00;;;;;;;22.03;13.57;;;8.30;99.90;;;;;;5033325;28;20446;-71
2023/02/20 09:22:26;;;;;;;19.47;13.70;;;8.40;99.90;;;;;;5033383;28;20176;-80
2023/02/20 09:24:53;;;;;;;19.77;11.73;;;8.30;99.90;;;;;;5032722;28;20611;-79
2023/02/20 09:27:19;;;;;;;18.17;11.30;;;8.30;99.90;;;;;;5032711;28;20490;-74
2023/02/20 09:29:45;;;;;;;19.87;11.97;;;8.40;99.90;;;;;;5033071;28;20488;-68
2023/02/20 09:32:11;;;;;;;19.30;11.80;;;8.50;99.90;;;;;;5031957;28;20479;-68
2023/02/20 09:34:36;;;;;;;24.10;12.40;;;8.50;99.90;;;;;;5032863;28;20180;-68
2023/02/20 09:37:03;;;;;;;22.70;12.57;;;8.50;99.90;;;;;;5032429;28;20631;-69
2023/02/20 09:39:29;;;;;;;18.90;12.43;;;8.50;99.90;;;;;;5032321;28;20183;-70
2023/02/20 09:42:20;;;;;;;21.73;12.03;;;8.50;99.90;;;;;;5032902;28;20434;-68
2023/02/20 09:45:22;;;;;;;21.93;11.80;;;8.50;99.90;;;;;;5032169;28;20418;-67
2023/02/20 09:47:57;;;;;;;19.03;13.23;;;8.30;99.90;;;;;;5023456;28;20560;-70
2023/02/20 09:50:54;;;;;;;22.07;14.30;;;8.40;99.90;;;;;;5030918;28;20429;-70
2023/02/20 09:53:33;;;;;;;17.70;11.10;;;8.40;99.90;;;;;;5030610;28;20437;-70
2023/02/20 09:56:00;;;;;;;28.73;13.03;;;8.40;99.90;;;;;;5030909;28;20433;-70
2023/02/20 09:59:04;;;;;;;19.80;12.37;;;8.40;99.90;;;;;;5030142;28;20789;-68
2023/02/20 10:01:31;;;;;;;28.13;13.63;;;8.50;99.90;;;;;;5030880;28;20434;-69
2023/02/20 10:04:03;;;;;;;21.87;12.03;;;8.50;99.90;;;;;;5032016;28;20808;-70
2023/02/20 10:06:32;;;;;;;21.00;12.50;;;8.50;99.90;;;;;;5031016;28;20480;-70
2023/02/20 10:08:58;;;;;;;20.60;12.70;;;8.60;99.90;;;;;;5032103;28;20436;-70
2023/02/20 10:11:27;;;;;;;22.00;11.70;;;8.60;99.90;;;;;;5031874;28;20453;-70
2023/02/20 10:14:18;;;;;;;21.70;12.03;;;8.50;99.90;;;;;;5032720;28;20450;-70
2023/02/20 10:17:09;;;;;;;21.90;11.37;;;8.60;99.90;;;;;;5031749;28;20529;-70
2023/02/20 10:19:37;;;;;;;17.93;11.47;;;8.60;99.90;;;;;;5031851;28;20940;-71
2023/02/20 10:22:20;;;;;;;21.17;13.35;;;8.50;99.90;;;;;;5030557;28;20425;-74
2023/02/20 10:24:52;;;;;;;18.50;13.20;;;8.60;99.90;;;;;;5031487;28;20219;-72
2023/02/20 10:27:42;;;;;;;19.27;12.30;;;8.80;99.90;;;;;;5030211;28;20474;-75
2023/02/20 10:30:12;;;;;;;16.33;11.30;;;8.70;99.90;;;;;;5030530;28;20423;-74
2023/02/20 10:32:49;;;;;;;21.30;13.27;;;8.80;99.90;;;;;;5029216;28;20470;-74
2023/02/20 10:35:23;;;;;;;20.77;10.93;;;8.70;99.90;;;;;;5028675;28;20418;-74
2023/02/20 10:37:55;;;;;;;21.83;12.57;;;8.70;99.90;;;;;;5030771;28;20473;-72
2023/02/20 10:40:31;;;;;;;17.47;10.60;;;8.70;99.90;;;;;;5031112;28;20838;-72
2023/02/20 10:43:04;;;;;;;19.00;11.03;;;8.70;99.90;;;;;;5029638;28;20452;-72
2023/02/20 10:45:50;;;;;;;20.53;12.70;;;8.70;99.90;;;;;;5030049;28;20509;-72
2023/02/20 10:48:15;;;;;;;20.10;12.70;;;8.80;99.90;;;;;;5028184;28;20425;-71
2023/02/20 10:51:01;;;;;;;16.80;11.33;;;8.80;99.90;;;;;;5033302;28;20191;-71
2023/02/20 10:53:35;;;;;;;21.47;11.90;;;8.90;99.90;;;;;;5034806;28;20241;-71
2023/02/20 10:56:06;;;;;;;18.50;12.30;;;9.00;99.90;;;;;;5034065;28;20434;-71
2023/02/20 10:58:38;;;;;;;18.13;11.87;;;8.90;99.90;;;;;;5034471;28;20437;-71
2023/02/20 11:01:10;;;;;;;18.93;12.60;;;8.90;99.90;;;;;;5033982;28;20445;-71
2023/02/20 11:03:56;;;;;;;21.40;12.40;;;8.90;99.90;;;;;;5032668;28;20446;-71
2023/02/20 11:06:29;;;;;;;16.60;10.10;;;8.90;99.90;;;;;;5033339;28;20568;-71
2023/02/20 11:08:54;;;;;;;17.30;12.03;;;9.00;99.90;;;;;;5031813;28;20438;-71
2023/02/20 11:11:43;;;;;;;15.87;10.30;;;9.00;99.90;;;;;;5034416;28;20480;-71
2023/02/20 11:14:23;;;;;;;16.10;11.33;;;9.10;99.90;;;;;;5034197;28;20176;-71
2023/02/20 11:17:09;;;;;;;21.57;12.00;;;9.00;99.90;;;;;;5034714;28;20426;-71
2023/02/20 11:19:42;;;;;;;18.70;11.47;;;9.00;99.90;;;;;;5033238;28;20434;-71
2023/02/20 11:22:08;;;;;;;16.77;10.30;;;9.00;99.90;;;;;;5033859;28;20515;-71
2023/02/20 11:24:35;;;;;;;21.90;10.13;;;9.10;99.90;;;;;;5034473;28;20774;-71
2023/02/20 11:27:05;;;;;;;20.37;12.07;;;9.00;99.90;;;;;;5033085;28;20462;-71
2023/02/20 11:29:46;;;;;;;18.73;11.53;;;9.10;99.90;;;;;;5033301;28;20444;-73
2023/02/20 11:32:30;;;;;;;15.90;10.67;;;9.00;99.90;;;;;;5033235;28;20454;-71
2023/02/20 11:35:32;;;;;;;19.93;12.07;;;9.00;99.90;;;;;;5034399;28;20430;-71
2023/02/20 11:38:20;;;;;;;21.27;12.47;;;9.10;99.90;;;;;;4991031;28;20955;-71
2023/02/20 11:40:52;;;;;;;17.27;11.20;;;9.10;99.90;;;;;;5033400;28;20522;-71
2023/02/20 11:43:40;;;;;;;17.80;10.80;;;9.20;99.90;;;;;;5033813;28;20423;-71
2023/02/20 11:46:08;;;;;;;17.77;11.07;;;9.20;99.90;;;;;;5031859;28;20462;-71
2023/02/20 11:48:34;;;;;;;24.70;11.87;;;9.30;99.90;;;;;;5032333;28;20448;-71
2023/02/20 11:51:00;;;;;;;18.30;11.63;;;9.30;99.90;;;;;;5033612;28;20434;-71
2023/02/20 11:53:30;;;;;;;15.77;10.30;;;9.30;99.90;;;;;;5034009;28;20968;-70
2023/02/20 11:56:09;;;;;;;18.37;11.10;;;9.20;99.90;;;;;;5033855;28;20265;-71
2023/02/20 11:58:36;;;;;;;17.70;11.40;;;9.20;99.90;;;;;;5032349;28;20446;-71
2023/02/20 12:01:01;;;;;;;17.67;11.20;;;9.30;99.90;;;;;;5033466;28;20487;-71
2023/02/20 12:03:30;;;;;;;16.03;10.43;;;9.30;99.90;;;;;;5032558;28;20521;-69
2023/02/20 12:05:57;;;;;;;18.17;11.10;;;9.40;99.90;;;;;;5033158;28;20567;-70
2023/02/20 12:08:37;;;;;;;21.53;10.87;;;9.50;99.90;;;;;;5033979;28;20434;-69
2023/02/20 12:11:14;;;;;;;16.03;10.50;;;9.60;99.90;;;;;;5033285;28;20426;-72
2023/02/20 12:13:48;;;;;;;15.33;10.80;;;9.60;99.90;;;;;;5033627;28;20477;-70
2023/02/20 12:16:17;;;;;;;28.57;11.80;;;9.50;99.90;;;;;;5034139;28;20472;-69
2023/02/20 12:18:55;;;;;;;19.83;10.10;;;9.50;99.90;;;;;;5032515;28;20434;-69
2023/02/20 12:21:35;;;;;;;24.10;10.00;;;9.50;99.90;;;;;;5031499;28;20430;-69
2023/02/20 12:24:27;;;;;;;16.20;10.40;;;9.50;99.90;;;;;;5033308;28;20917;-69
2023/02/20 12:26:58;;;;;;;15.13;9.90;;;9.50;99.90;;;;;;5033572;28;20573;-69
2023/02/20 12:30:10;;;;;;;24.27;11.70;;;9.50;99.90;;;;;;5033721;28;20844;-70
2023/02/20 12:32:39;;;;;;;19.03;10.10;;;9.30;99.90;;;;;;5005404;28;20904;-69
2023/02/20 12:35:24;;;;;;;16.60;10.10;;;9.40;99.90;;;;;;5017279;28;20430;-71
2023/02/20 12:38:06;;;;;;;17.27;10.60;;;9.40;99.90;;;;;;5031710;28;20434;-71
2023/02/20 12:40:47;;;;;;;24.50;10.63;;;9.40;99.90;;;;;;5033609;28;20473;-71
2023/02/20 12:43:41;;;;;;;20.63;10.70;;;9.40;99.90;;;;;;5027583;28;20933;-69
2023/02/20 12:46:44;;;;;;;19.30;11.97;;;9.50;99.90;;;;;;5023428;28;20469;-69
2023/02/20 12:49:40;;;;;;;25.30;11.80;;;9.50;99.90;;;;;;5032257;28;20426;-70
2023/02/20 12:52:43;;;;;;;16.90;11.40;;;9.40;99.90;;;;;;5031819;28;20437;-69
2023/02/20 12:55:21;;;;;;;24.37;13.20;;;9.40;99.90;;;;;;5033033;28;20454;-69
2023/02/20 12:58:10;;;;;;;18.20;11.40;;;9.30;99.90;;;;;;5033121;28;20450;-72
2023/02/20 13:00:40;;;;;;;21.30;12.60;;;9.30;99.90;;;;;;5033214;28;20437;-73
2023/02/20 13:03:38;;;;;;;18.77;11.03;;;9.30;99.90;;;;;;5033362;28;20436;-70
2023/02/20 13:06:05;;;;;;;20.87;12.33;;;9.20;99.90;;;;;;5027145;28;20473;-72
2023/02/20 13:08:40;;;;;;;22.20;12.93;;;9.20;99.90;;;;;;5032883;28;20484;-83
2023/02/20 13:11:28;;;;;;;19.50;12.93;;;9.20;99.90;;;;;;5032683;28;20426;-82
2023/02/20 13:14:23;;;;;;;20.57;12.70;;;9.30;99.90;;;;;;5031532;28;20538;-80
2023/02/20 13:16:52;;;;;;;19.20;12.70;;;9.40;99.90;;;;;;5031502;28;20933;-81
2023/02/20 13:19:26;;;;;;;22.70;12.73;;;9.40;99.90;;;;;;5031775;28;20528;-80
2023/02/20 13:21:54;;;;;;;22.00;11.63;;;9.40;99.90;;;;;;5030748;28;20458;-80
2023/02/20 13:24:20;;;;;;;19.43;12.80;;;9.30;99.90;;;;;;5031939;28;20423;-80
2023/02/20 13:26:48;;;;;;;22.47;12.77;;;9.30;99.90;;;;;;5031893;28;20583;-81
2023/02/20 13:29:17;;;;;;;19.70;10.87;;;9.40;99.90;;;;;;5031909;28;20172;-79
2023/02/20 13:31:47;;;;;;;23.23;14.30;;;9.40;99.90;;;;;;5030322;28;20442;-77
2023/02/20 13:34:12;;;;;;;21.33;12.27;;;9.40;99.90;;;;;;5031783;28;20179;-80
2023/02/20 13:36:38;;;;;;;18.83;12.00;;;9.50;99.90;;;;;;5032093;28;20457;-80
2023/02/20 13:39:19;;;;;;;20.30;12.40;;;9.50;99.90;;;;;;5034493;28;20205;-79
2023/02/20 13:41:54;;;;;;;28.70;13.17;;;9.60;99.90;;;;;;5032007;28;20186;-78
2023/02/20 13:44:42;;;;;;;23.57;11.93;;;9.60;99.90;;;;;;5031788;28;20466;-77
2023/02/20 13:47:11;;;;;;;17.83;11.63;;;9.60;99.90;;;;;;5030645;28;20704;-76
2023/02/20 13:49:48;;;;;;;19.03;12.20;;;9.60;99.90;;;;;;5031972;28;20434;-76
2023/02/20 13:52:48;;;;;;;20.13;11.77;;;9.70;99.90;;;;;;5030928;28;20444;-77
2023/02/20 13:55:31;;;;;;;21.20;12.00;;;9.60;99.90;;;;;;5007159;28;20446;-77
2023/02/20 13:58:10;;;;;;;20.40;11.90;;;9.60;99.90;;;;;;5030071;28;20529;-77
2023/02/20 14:00:51;;;;;;;23.80;11.30;;;9.60;99.90;;;;;;5029729;28;20477;-77
2023/02/20 14:03:29;;;;;;;22.67;12.80;;;9.50;99.90;;;;;;5030051;28;20476;-77
2023/02/20 14:06:15;;;;;;;22.70;12.47;;;9.50;99.90;;;;;;5029666;28;20460;-77
2023/02/20 14:08:45;;;;;;;17.97;12.20;;;9.60;99.90;;;;;;5030267;28;20442;-77
2023/02/20 14:11:21;;;;;;;21.17;12.93;;;9.60;99.90;;;;;;5030729;28;20437;-77
2023/02/20 14:13:51;;;;;;;19.70;13.40;;;9.60;99.90;;;;;;5017557;28;20426;-72
2023/02/20 14:16:27;;;;;;;20.37;13.03;;;9.50;99.90;;;;;;5027127;28;20484;-77
2023/02/20 14:19:19;;;;;;;29.53;13.80;;;9.60;99.90;;;;;;5031473;28;20782;-77
2023/02/20 14:21:45;;;;;;;25.53;14.10;;;9.60;99.90;;;;;;5030339;28;20467;-79
2023/02/20 14:24:29;;;;;;;20.57;13.90;;;9.50;99.90;;;;;;5028558;28;20521;-77
2023/02/20 14:26:55;;;;;;;21.80;13.23;;;9.60;99.90;;;;;;5031871;28;20223;-76
2023/02/20 14:29:33;;;;;;;26.20;14.52;;;9.60;99.90;;;;;;5013359;28;20440;-77
2023/02/20 14:32:02;;;;;;;26.10;15.00;;;9.50;99.90;;;;;;5031460;28;20270;-76
2023/02/20 14:34:48;;;;;;;29.57;14.43;;;9.40;99.90;;;;;;5029276;28;20414;-80
2023/02/20 14:37:39;;;;;;;27.93;15.00;;;9.50;99.90;;;;;;5031236;28;21064;-80
2023/02/20 14:40:23;;;;;;;22.37;14.73;;;9.50;99.90;;;;;;5000635;28;20442;-80
2023/02/20 14:42:49;;;;;;;24.43;14.40;;;9.60;99.90;;;;;;5031766;28;20807;-80
2023/02/20 14:45:20;;;;;;;24.67;13.90;;;9.40;99.90;;;;;;5032358;28;20430;-80
2023/02/20 14:47:53;;;;;;;22.67;15.60;;;9.60;99.90;;;;;;5030754;28;20472;-80
2023/02/20 14:50:25;;;;;;;23.20;14.33;;;9.70;99.90;;;;;;5032773;28;20509;-80
2023/02/20 14:53:00;;;;;;;23.03;14.30;;;9.70;99.90;;;;;;5032006;28;20433;-79
2023/02/20 14:55:26;;;;;;;21.70;13.23;;;9.80;99.90;;;;;;5029658;28;20786;-80
2023/02/20 14:57:52;;;;;;;21.00;13.83;;;9.70;99.90;;;;;;5032789;28;20434;-80
2023/02/20 15:00:19;;;;;;;32.90;16.80;;;9.70;99.90;;;;;;5032446;28;20241;-80
2023/02/20 15:02:48;;;;;;;23.10;14.50;;;9.70;99.90;;;;;;5032244;28;20183;-79
2023/02/20 15:05:24;;;;;;;21.90;15.50;;;9.60;99.90;;;;;;5032627;28;20462;-79
2023/02/20 15:07:49;;;;;;;23.80;15.60;;;9.70;99.90;;;;;;5032376;28;20823;-80